Time;durP1;ratioP1;P1;durP2;ratioP2;P2;SDS_P1;SDS_P2;PMS_P1;PMS_P2;Temp;Humidity;BMP_temperature;BMP_pressure;BME280_temperature;BME280_humidity;BME280_pressure;Samples;Min_cycle;Max_cycle;Signal;HPM_P1;HPM_P2
2021/04/09 00:00:33;;;;;;;10.82;5.40;;;2.90;72.10;;;;;;2105591;28;20039;-68
2021/04/09 00:01:42;;;;;;;8.63;5.22;;;2.90;71.80;;;;;;2104916;28;20423;-68
2021/04/09 00:02:43;;;;;;;7.93;5.07;;;3.00;72.00;;;;;;2104891;28;20027;-68
2021/04/09 00:03:44;;;;;;;10.48;5.20;;;3.00;71.50;;;;;;2104482;28;20475;-67
2021/04/09 00:04:45;;;;;;;8.98;5.20;;;2.90;71.70;;;;;;2096569;28;20103;-66
2021/04/09 00:05:46;;;;;;;8.73;4.97;;;2.90;71.90;;;;;;2104788;28;20028;-66
2021/04/09 00:06:47;;;;;;;9.00;5.32;;;2.90;72.00;;;;;;2096588;28;20110;-68
2021/04/09 00:07:49;;;;;;;9.57;5.50;;;2.90;71.70;;;;;;2105138;28;20162;-67
2021/04/09 00:08:50;;;;;;;11.05;5.60;;;2.90;71.50;;;;;;2105637;28;20507;-70
2021/04/09 00:09:51;;;;;;;10.48;5.60;;;2.90;71.40;;;;;;2104854;28;20130;-68
2021/04/09 00:10:51;;;;;;;10.35;5.22;;;2.90;71.40;;;;;;2096554;28;20025;-69
2021/04/09 00:11:54;;;;;;;10.30;5.30;;;2.90;71.30;;;;;;2096610;28;20059;-68
2021/04/09 00:12:56;;;;;;;9.52;5.40;;;2.90;71.60;;;;;;2096350;28;20511;-67
2021/04/09 00:13:56;;;;;;;8.90;5.07;;;2.80;71.60;;;;;;2104662;28;20032;-67
2021/04/09 00:14:57;;;;;;;8.43;4.90;;;2.80;71.50;;;;;;2105277;28;20061;-68
2021/04/09 00:15:58;;;;;;;10.15;5.35;;;2.80;71.40;;;;;;2105333;28;20032;-69
2021/04/09 00:16:59;;;;;;;8.30;5.00;;;2.80;71.70;;;;;;2105235;28;20016;-68
2021/04/09 00:17:59;;;;;;;8.93;5.40;;;2.80;72.00;;;;;;2104852;28;20089;-68
2021/04/09 00:19:00;;;;;;;8.93;5.00;;;2.70;72.40;;;;;;2104695;28;20035;-68
2021/04/09 00:20:01;;;;;;;9.75;4.90;;;2.70;72.30;;;;;;2104877;28;20032;-69
2021/04/09 00:21:02;;;;;;;9.85;5.15;;;2.70;72.30;;;;;;2104478;28;20119;-68
2021/04/09 00:22:03;;;;;;;9.73;5.30;;;2.70;72.10;;;;;;2104555;28;20051;-68
2021/04/09 00:23:03;;;;;;;9.57;5.20;;;2.70;72.00;;;;;;2104529;28;20024;-70
2021/04/09 00:24:04;;;;;;;8.65;5.20;;;2.70;72.10;;;;;;2105031;28;20044;-68
2021/04/09 00:25:08;;;;;;;9.63;4.93;;;2.60;72.20;;;;;;2096402;28;20582;-68
2021/04/09 00:26:08;;;;;;;11.80;5.43;;;2.70;72.40;;;;;;2096452;28;20115;-67
2021/04/09 00:27:12;;;;;;;7.47;4.68;;;2.60;72.50;;;;;;2096206;28;20025;-69
2021/04/09 00:28:13;;;;;;;9.27;5.05;;;2.60;72.40;;;;;;2104526;28;20461;-68
2021/04/09 00:29:14;;;;;;;12.43;5.25;;;2.60;72.20;;;;;;2104592;28;20498;-68
2021/04/09 00:30:23;;;;;;;7.03;4.90;;;2.60;72.60;;;;;;2104706;28;20016;-68
2021/04/09 00:31:24;;;;;;;7.43;4.90;;;2.50;72.50;;;;;;2104716;28;20039;-67
2021/04/09 00:32:25;;;;;;;9.80;5.20;;;2.50;72.70;;;;;;2104722;28;20028;-67
2021/04/09 00:33:25;;;;;;;7.82;5.15;;;2.50;72.70;;;;;;2104417;28;20491;-69
2021/04/09 00:34:26;;;;;;;7.55;4.72;;;2.50;72.70;;;;;;2096282;28;20020;-67
2021/04/09 00:35:27;;;;;;;7.10;4.60;;;2.50;72.60;;;;;;2104497;28;20146;-67
2021/04/09 00:36:28;;;;;;;9.15;5.15;;;2.50;72.60;;;;;;2105244;28;20032;-69
2021/04/09 00:37:28;;;;;;;9.75;4.90;;;2.40;72.70;;;;;;2096116;28;20035;-68
2021/04/09 00:38:29;;;;;;;8.30;4.65;;;2.40;72.80;;;;;;2096262;28;20028;-67
2021/04/09 00:39:30;;;;;;;7.30;4.50;;;2.40;73.10;;;;;;2104418;28;20056;-69
2021/04/09 00:40:30;;;;;;;7.20;4.32;;;2.40;73.10;;;;;;2105302;28;20024;-68
2021/04/09 00:41:31;;;;;;;7.85;4.90;;;2.30;73.20;;;;;;2106145;28;20500;-68
2021/04/09 00:42:32;;;;;;;7.85;4.72;;;2.30;73.20;;;;;;2106487;28;20089;-68
2021/04/09 00:43:33;;;;;;;9.75;5.18;;;2.30;73.40;;;;;;2106129;28;20028;-67
2021/04/09 00:44:33;;;;;;;8.90;4.97;;;2.30;73.60;;;;;;2106727;28;20062;-67
2021/04/09 00:45:35;;;;;;;7.65;5.10;;;2.30;73.60;;;;;;2106423;28;20595;-68
2021/04/09 00:46:36;;;;;;;7.75;5.13;;;2.20;73.80;;;;;;2105906;28;20082;-68
2021/04/09 00:47:37;;;;;;;9.05;5.28;;;2.30;73.90;;;;;;2106060;28;20604;-71
2021/04/09 00:48:37;;;;;;;7.32;4.82;;;2.20;74.00;;;;;;2105903;28;20035;-67
2021/04/09 00:49:38;;;;;;;7.03;4.85;;;2.20;74.10;;;;;;2106028;28;20039;-70
2021/04/09 00:50:39;;;;;;;6.88;4.80;;;2.20;74.00;;;;;;2106625;28;20016;-68
2021/04/09 00:51:41;;;;;;;6.50;4.47;;;2.20;74.00;;;;;;2106533;28;20567;-69
2021/04/09 00:52:43;;;;;;;7.30;4.70;;;2.20;74.00;;;;;;2106464;28;20035;-69
2021/04/09 00:53:44;;;;;;;7.80;4.80;;;2.20;74.20;;;;;;2106334;28;20020;-69
2021/04/09 00:54:46;;;;;;;8.63;4.88;;;2.20;74.20;;;;;;2106475;28;20055;-68
2021/04/09 00:55:48;;;;;;;7.47;5.00;;;2.20;74.20;;;;;;2106419;28;20024;-69
2021/04/09 00:56:48;;;;;;;8.43;5.40;;;2.20;74.00;;;;;;2106713;28;20035;-69
2021/04/09 00:57:51;;;;;;;9.05;5.45;;;2.20;74.00;;;;;;2106647;28;20040;-70
2021/04/09 00:58:52;;;;;;;6.97;4.90;;;2.20;74.10;;;;;;2106667;28;20036;-69
2021/04/09 00:59:53;;;;;;;9.77;5.38;;;2.10;74.10;;;;;;2106507;28;20109;-69
2021/04/09 01:00:54;;;;;;;9.20;5.57;;;2.20;74.10;;;;;;2106533;28;20032;-69
2021/04/09 01:01:55;;;;;;;7.35;4.93;;;2.10;74.40;;;;;;2106627;28;20024;-69
2021/04/09 01:02:58;;;;;;;8.35;5.47;;;2.10;74.40;;;;;;2106561;28;20028;-69
2021/04/09 01:04:00;;;;;;;9.35;6.15;;;2.10;74.80;;;;;;2106101;28;20112;-69
2021/04/09 01:05:02;;;;;;;9.32;6.25;;;2.10;75.00;;;;;;2106452;28;20028;-70
2021/04/09 01:06:02;;;;;;;8.70;5.88;;;2.10;74.90;;;;;;2106486;28;20341;-70
2021/04/09 01:07:04;;;;;;;9.52;5.80;;;2.10;74.70;;;;;;2105878;28;20123;-70
2021/04/09 01:08:08;;;;;;;9.00;5.82;;;2.10;74.80;;;;;;2105873;28;20502;-70
2021/04/09 01:09:08;;;;;;;9.57;5.65;;;2.10;75.00;;;;;;2106478;28;20498;-69
2021/04/09 01:10:10;;;;;;;7.82;5.03;;;2.10;74.50;;;;;;2105727;28;20031;-70
2021/04/09 01:11:11;;;;;;;8.15;5.40;;;2.10;74.50;;;;;;2105839;28;20027;-70
2021/04/09 01:12:12;;;;;;;7.10;5.10;;;2.10;74.70;;;;;;2106381;28;20039;-69
2021/04/09 01:13:13;;;;;;;7.38;5.20;;;2.10;74.70;;;;;;2106585;28;20049;-69
2021/04/09 01:14:14;;;;;;;8.00;5.20;;;2.10;74.70;;;;;;2106692;28;20024;-69
2021/04/09 01:15:16;;;;;;;7.90;5.30;;;2.00;74.80;;;;;;2106552;28;20184;-69
2021/04/09 01:16:36;;;;;;;9.07;5.75;;;2.10;74.60;;;;;;2106694;28;20028;-69
2021/04/09 01:18:02;;;;;;;8.90;5.68;;;2.10;74.40;;;;;;2106328;28;20061;-70
2021/04/09 01:19:28;;;;;;;8.50;5.30;;;2.00;74.40;;;;;;2091952;28;20024;-69
2021/04/09 01:20:56;;;;;;;8.30;5.30;;;2.00;74.50;;;;;;2106411;28;20039;-69
2021/04/09 01:22:02;;;;;;;6.13;4.75;;;2.00;74.60;;;;;;2106358;28;20438;-69
2021/04/09 01:23:40;;;;;;;9.15;5.72;;;2.00;74.90;;;;;;2106108;28;20039;-69
2021/04/09 01:25:09;;;;;;;7.00;5.13;;;2.00;75.20;;;;;;2106310;28;20449;-69
2021/04/09 01:26:45;;;;;;;9.20;6.28;;;1.90;76.10;;;;;;2106236;28;20028;-69
2021/04/09 01:28:07;;;;;;;9.48;5.75;;;1.90;75.40;;;;;;2105562;28;20024;-69
2021/04/09 01:29:29;;;;;;;11.10;6.10;;;1.90;75.60;;;;;;2105780;28;20093;-70
2021/04/09 01:31:04;;;;;;;8.10;5.20;;;1.90;75.70;;;;;;2106247;28;20085;-70
2021/04/09 01:32:12;;;;;;;8.63;5.40;;;1.90;75.80;;;;;;2106253;28;20032;-70
2021/04/09 01:33:12;;;;;;;10.30;5.90;;;1.80;76.00;;;;;;2105225;28;20449;-69
2021/04/09 01:34:15;;;;;;;8.85;5.68;;;1.80;76.20;;;;;;2105703;28;20016;-69
2021/04/09 01:35:17;;;;;;;10.65;6.18;;;1.80;76.30;;;;;;2106392;28;20063;-70
2021/04/09 01:36:25;;;;;;;8.98;5.80;;;1.80;76.40;;;;;;2106530;28;20048;-69
2021/04/09 01:37:31;;;;;;;9.18;5.72;;;1.80;76.50;;;;;;2105675;28;20410;-69
2021/04/09 01:38:36;;;;;;;8.82;5.50;;;1.80;76.80;;;;;;2105769;28;20477;-70
2021/04/09 01:39:43;;;;;;;11.93;6.30;;;1.80;76.90;;;;;;2106303;28;20032;-69
2021/04/09 01:40:47;;;;;;;11.23;6.20;;;1.80;77.00;;;;;;2106336;28;20024;-70
2021/04/09 01:41:50;;;;;;;10.80;5.85;;;1.80;77.00;;;;;;2106208;28;20024;-70
2021/04/09 01:42:54;;;;;;;9.10;6.25;;;1.70;76.90;;;;;;2106247;28;20064;-69
2021/04/09 01:43:58;;;;;;;12.45;6.47;;;1.70;76.80;;;;;;2105122;28;20395;-69
2021/04/09 01:45:00;;;;;;;9.63;6.20;;;1.80;77.00;;;;;;2105706;28;20028;-70
2021/04/09 01:46:01;;;;;;;9.90;6.10;;;1.80;77.10;;;;;;2106258;28;20404;-70
2021/04/09 01:47:04;;;;;;;11.50;6.72;;;1.70;77.10;;;;;;2106282;28;20020;-69
2021/04/09 01:48:08;;;;;;;12.05;6.80;;;1.70;77.30;;;;;;2106190;28;20328;-70
2021/04/09 01:49:11;;;;;;;10.93;6.53;;;1.70;77.40;;;;;;2106396;28;20031;-69
2021/04/09 01:50:17;;;;;;;12.65;6.80;;;1.70;77.40;;;;;;2105897;28;20059;-70
2021/04/09 01:51:19;;;;;;;10.98;6.32;;;1.70;77.30;;;;;;2097551;28;20029;-68
2021/04/09 01:52:21;;;;;;;11.10;6.20;;;1.70;77.40;;;;;;2105648;28;20051;-69
2021/04/09 01:53:26;;;;;;;10.85;6.32;;;1.70;77.50;;;;;;2105874;28;20020;-69
2021/04/09 01:54:29;;;;;;;10.48;6.20;;;1.70;77.50;;;;;;2106210;28;20372;-69
2021/04/09 01:55:32;;;;;;;8.73;5.85;;;1.70;77.50;;;;;;2106035;28;20028;-69
2021/04/09 01:56:35;;;;;;;10.80;6.20;;;1.70;77.60;;;;;;2106058;28;20028;-69
2021/04/09 01:57:38;;;;;;;12.30;6.80;;;1.70;77.70;;;;;;2106053;28;20046;-69
2021/04/09 01:58:40;;;;;;;13.43;6.97;;;1.70;77.80;;;;;;2105363;28;20044;-69
2021/04/09 01:59:42;;;;;;;11.80;6.88;;;1.60;77.90;;;;;;2105392;28;20032;-70
2021/04/09 02:00:43;;;;;;;13.20;6.90;;;1.60;78.10;;;;;;2105441;28;20036;-69
2021/04/09 02:01:51;;;;;;;11.52;7.10;;;1.60;78.30;;;;;;2097073;28;20025;-69
2021/04/09 02:02:53;;;;;;;11.65;6.90;;;1.60;78.60;;;;;;2098019;28;20021;-69
2021/04/09 02:03:54;;;;;;;12.75;7.35;;;1.60;78.70;;;;;;2104917;28;20036;-68
2021/04/09 02:04:56;;;;;;;11.88;6.97;;;1.60;78.70;;;;;;2105949;28;20023;-68
2021/04/09 02:05:57;;;;;;;11.25;6.97;;;1.60;78.80;;;;;;2105838;28;20731;-68
2021/04/09 02:07:00;;;;;;;12.48;6.88;;;1.50;78.90;;;;;;2105961;28;20024;-68
2021/04/09 02:08:02;;;;;;;11.05;6.70;;;1.50;78.80;;;;;;2105955;28;20042;-69
2021/04/09 02:09:04;;;;;;;11.40;6.60;;;1.50;79.00;;;;;;2105856;28;20036;-68
2021/04/09 02:10:05;;;;;;;12.07;6.95;;;1.50;79.10;;;;;;2105919;28;20035;-69
2021/04/09 02:11:08;;;;;;;10.30;6.50;;;1.50;79.00;;;;;;2105088;28;20139;-69
2021/04/09 02:12:11;;;;;;;13.23;7.40;;;1.50;79.10;;;;;;2105431;28;20553;-67
2021/04/09 02:13:11;;;;;;;14.32;7.88;;;1.50;79.30;;;;;;2105488;28;20111;-68
2021/04/09 02:14:14;;;;;;;15.90;8.13;;;1.50;79.50;;;;;;2105198;28;20017;-71
2021/04/09 02:15:21;;;;;;;15.38;8.18;;;1.50;79.60;;;;;;2105335;28;20417;-68
2021/04/09 02:16:23;;;;;;;16.83;9.00;;;1.50;79.80;;;;;;2105947;28;20360;-68
2021/04/09 02:17:24;;;;;;;17.85;9.00;;;1.40;80.10;;;;;;2105150;28;20457;-70
2021/04/09 02:18:25;;;;;;;14.98;9.15;;;1.50;80.40;;;;;;2096784;28;20044;-69
2021/04/09 02:19:26;;;;;;;19.15;9.63;;;1.50;80.30;;;;;;2105336;28;20035;-69
2021/04/09 02:20:26;;;;;;;16.88;9.13;;;1.40;80.30;;;;;;2105918;28;20795;-70
2021/04/09 02:21:27;;;;;;;17.70;9.60;;;1.40;80.20;;;;;;2105895;28;20028;-70
2021/04/09 02:22:28;;;;;;;21.70;10.00;;;1.40;80.40;;;;;;2104975;28;20031;-70
2021/04/09 02:23:29;;;;;;;17.15;9.80;;;1.40;80.50;;;;;;2105051;28;20080;-68
2021/04/09 02:24:30;;;;;;;18.75;9.95;;;1.40;80.60;;;;;;2105819;28;20560;-69
2021/04/09 02:25:31;;;;;;;19.65;9.77;;;1.40;80.60;;;;;;2105902;28;20168;-69
2021/04/09 02:26:32;;;;;;;18.05;10.18;;;1.30;80.90;;;;;;2105206;28;20066;-69
2021/04/09 02:27:34;;;;;;;20.30;9.85;;;1.30;80.80;;;;;;2105340;28;20075;-70
2021/04/09 02:28:34;;;;;;;20.40;10.23;;;1.40;80.90;;;;;;2105789;28;20093;-70
2021/04/09 02:29:35;;;;;;;17.98;9.77;;;1.40;80.80;;;;;;2105991;28;20093;-68
2021/04/09 02:30:36;;;;;;;17.35;9.55;;;1.30;80.90;;;;;;2105844;28;20039;-70
2021/04/09 02:31:39;;;;;;;19.13;9.50;;;1.30;81.00;;;;;;2105770;28;20024;-68
2021/04/09 02:32:40;;;;;;;19.63;9.75;;;1.30;81.20;;;;;;2104959;28;20111;-70
2021/04/09 02:33:42;;;;;;;18.25;9.48;;;1.30;81.00;;;;;;2104845;28;20473;-70
2021/04/09 02:34:42;;;;;;;17.98;9.45;;;1.30;81.00;;;;;;2105192;28;20030;-70
2021/04/09 02:35:43;;;;;;;19.25;9.82;;;1.30;80.90;;;;;;2105167;28;20391;-70
2021/04/09 02:36:44;;;;;;;19.60;9.63;;;1.30;80.90;;;;;;2105627;28;20024;-71
2021/04/09 02:37:47;;;;;;;20.90;10.35;;;1.30;81.10;;;;;;2105717;28;20024;-70
2021/04/09 02:38:51;;;;;;;17.50;9.43;;;1.30;81.20;;;;;;2105074;28;20564;-69
2021/04/09 02:39:55;;;;;;;18.20;9.52;;;1.30;81.10;;;;;;2105136;28;20394;-70
2021/04/09 02:41:01;;;;;;;19.05;9.57;;;1.30;81.30;;;;;;2105044;28;20031;-69
2021/04/09 02:42:06;;;;;;;16.33;9.40;;;1.30;81.40;;;;;;2105734;28;20032;-69
2021/04/09 02:43:07;;;;;;;17.77;9.18;;;1.30;81.30;;;;;;2105540;28;20024;-69
2021/04/09 02:44:08;;;;;;;17.77;9.52;;;1.30;81.40;;;;;;2104673;28;20073;-69
2021/04/09 02:45:09;;;;;;;18.95;9.68;;;1.30;81.40;;;;;;2096630;28;20035;-69
2021/04/09 02:46:17;;;;;;;16.88;8.98;;;1.30;81.50;;;;;;2096411;28;20028;-68
2021/04/09 02:47:24;;;;;;;17.50;9.10;;;1.30;81.40;;;;;;2105233;28;20515;-68
2021/04/09 02:48:28;;;;;;;15.70;8.75;;;1.30;81.20;;;;;;2105046;28;20020;-68
2021/04/09 02:49:48;;;;;;;14.07;8.13;;;1.30;81.10;;;;;;2105093;28;20111;-69
2021/04/09 02:50:49;;;;;;;14.35;8.63;;;1.30;80.90;;;;;;2105600;28;20024;-71
2021/04/09 02:51:54;;;;;;;15.77;8.30;;;1.30;80.90;;;;;;2105657;28;20036;-69
2021/04/09 02:53:00;;;;;;;15.10;8.20;;;1.30;81.00;;;;;;2104779;28;20051;-69
2021/04/09 02:54:01;;;;;;;16.05;9.57;;;1.30;81.10;;;;;;2104925;28;20023;-69
2021/04/09 02:55:08;;;;;;;15.98;9.07;;;1.30;81.00;;;;;;2105606;28;20103;-69
2021/04/09 02:56:12;;;;;;;14.52;8.82;;;1.30;80.80;;;;;;2105734;28;20016;-71
2021/04/09 02:57:14;;;;;;;17.52;9.15;;;1.30;80.80;;;;;;2105554;28;20032;-69
2021/04/09 02:58:16;;;;;;;16.23;8.50;;;1.30;80.70;;;;;;2105534;28;20024;-69
2021/04/09 02:59:18;;;;;;;14.57;8.43;;;1.30;80.80;;;;;;2105528;28;20510;-69
2021/04/09 03:00:19;;;;;;;15.15;8.73;;;1.30;80.80;;;;;;2105441;28;20107;-69
2021/04/09 03:01:23;;;;;;;14.93;8.73;;;1.30;81.00;;;;;;2105477;28;20024;-70
2021/04/09 03:02:24;;;;;;;16.52;9.60;;;1.30;81.00;;;;;;2105579;28;20032;-69
2021/04/09 03:03:26;;;;;;;15.38;9.48;;;1.30;81.20;;;;;;2103903;28;20027;-69
2021/04/09 03:04:29;;;;;;;17.65;9.40;;;1.30;81.10;;;;;;2105013;28;20056;-69
2021/04/09 03:05:31;;;;;;;18.48;9.80;;;1.30;80.90;;;;;;2105619;28;20032;-70
2021/04/09 03:06:31;;;;;;;17.35;9.30;;;1.30;80.90;;;;;;2105662;28;20081;-69
2021/04/09 03:07:34;;;;;;;17.52;9.00;;;1.30;80.80;;;;;;2105551;28;20109;-69
2021/04/09 03:08:35;;;;;;;14.40;8.82;;;1.30;81.10;;;;;;2105699;28;20399;-69
2021/04/09 03:09:37;;;;;;;15.23;8.35;;;1.30;80.60;;;;;;2104876;28;20499;-70
2021/04/09 03:10:37;;;;;;;14.45;8.75;;;1.30;80.60;;;;;;2105026;28;20051;-70
2021/04/09 03:11:42;;;;;;;12.57;8.20;;;1.40;80.70;;;;;;2104861;28;20107;-69
2021/04/09 03:12:43;;;;;;;13.82;8.15;;;1.30;80.80;;;;;;2104915;28;20103;-69
2021/04/09 03:13:44;;;;;;;13.70;8.23;;;1.40;80.90;;;;;;2104674;28;20107;-69
2021/04/09 03:14:47;;;;;;;12.68;8.13;;;1.40;80.90;;;;;;2104999;28;20020;-70
2021/04/09 03:15:58;;;;;;;14.52;8.50;;;1.30;80.80;;;;;;2105664;28;20027;-69
2021/04/09 03:17:03;;;;;;;14.55;8.40;;;1.30;80.80;;;;;;2109697;28;20051;-69
2021/04/09 03:18:08;;;;;;;15.43;8.85;;;1.30;80.80;;;;;;2109934;28;20020;-69
2021/04/09 03:19:10;;;;;;;15.77;9.07;;;1.30;80.80;;;;;;2110405;28;20032;-69
2021/04/09 03:20:11;;;;;;;15.73;9.38;;;1.30;81.00;;;;;;2109666;28;20058;-69
2021/04/09 03:21:12;;;;;;;14.82;8.82;;;1.30;80.80;;;;;;2109210;28;20028;-69
2021/04/09 03:22:13;;;;;;;14.98;8.98;;;1.30;80.70;;;;;;2109978;28;20032;-69
2021/04/09 03:23:13;;;;;;;14.25;9.00;;;1.30;80.80;;;;;;2110111;28;20069;-68
2021/04/09 03:24:14;;;;;;;16.13;9.30;;;1.30;80.90;;;;;;2107845;28;20502;-69
2021/04/09 03:25:15;;;;;;;14.93;8.93;;;1.30;81.10;;;;;;2105751;28;20500;-69
2021/04/09 03:26:15;;;;;;;15.43;9.15;;;1.30;81.20;;;;;;2105464;28;20028;-69
2021/04/09 03:27:16;;;;;;;14.15;9.05;;;1.30;81.40;;;;;;2105752;28;20019;-69
2021/04/09 03:28:17;;;;;;;16.33;9.38;;;1.30;81.70;;;;;;2105030;28;20073;-69
2021/04/09 03:29:17;;;;;;;15.02;9.57;;;1.30;81.70;;;;;;2096523;28;20032;-69
2021/04/09 03:30:20;;;;;;;14.75;8.95;;;1.30;81.70;;;;;;2096841;28;20028;-70
2021/04/09 03:31:21;;;;;;;16.25;8.73;;;1.30;81.50;;;;;;2104891;28;20074;-69
2021/04/09 03:32:21;;;;;;;17.02;9.43;;;1.30;81.40;;;;;;2105401;28;20510;-69
2021/04/09 03:33:24;;;;;;;14.10;9.38;;;1.30;81.40;;;;;;2105144;28;20028;-70
2021/04/09 03:34:24;;;;;;;15.70;9.00;;;1.30;81.20;;;;;;2105551;28;20085;-70
2021/04/09 03:35:25;;;;;;;18.13;9.82;;;1.30;81.40;;;;;;2105463;28;20107;-70
2021/04/09 03:36:26;;;;;;;15.93;9.13;;;1.30;81.20;;;;;;2105318;28;20050;-70
2021/04/09 03:37:26;;;;;;;14.40;9.23;;;1.30;81.30;;;;;;2105406;28;20051;-69
2021/04/09 03:38:27;;;;;;;14.75;9.07;;;1.30;81.30;;;;;;2105321;28;20103;-70
2021/04/09 03:39:28;;;;;;;14.63;9.27;;;1.30;81.30;;;;;;2105417;28;20447;-70
2021/04/09 03:40:28;;;;;;;15.05;9.13;;;1.30;81.20;;;;;;2105501;28;20089;-70
2021/04/09 03:41:29;;;;;;;15.75;10.07;;;1.30;81.20;;;;;;2105441;28;20028;-68
2021/04/09 03:42:29;;;;;;;15.80;9.60;;;1.30;81.30;;;;;;2105250;28;20134;-69
2021/04/09 03:43:30;;;;;;;14.48;9.45;;;1.30;81.20;;;;;;2105533;28;20589;-69
2021/04/09 03:44:30;;;;;;;14.05;9.60;;;1.30;81.10;;;;;;2105892;28;20031;-70
2021/04/09 03:45:31;;;;;;;14.18;9.43;;;1.30;81.10;;;;;;2105599;28;20053;-70
2021/04/09 03:46:32;;;;;;;13.18;9.20;;;1.30;81.20;;;;;;2106060;28;20027;-69
2021/04/09 03:47:33;;;;;;;13.98;9.43;;;1.30;81.00;;;;;;2105480;28;20032;-69
2021/04/09 03:48:35;;;;;;;15.25;9.55;;;1.30;81.00;;;;;;2105448;28;20061;-69
2021/04/09 03:49:35;;;;;;;14.65;10.00;;;1.30;80.80;;;;;;2105396;28;20093;-70
2021/04/09 03:50:36;;;;;;;15.48;10.32;;;1.30;80.50;;;;;;2105389;28;20046;-69
2021/04/09 03:51:37;;;;;;;15.10;9.73;;;1.30;80.30;;;;;;2105383;28;20380;-70
2021/04/09 03:52:38;;;;;;;15.40;10.20;;;1.30;80.10;;;;;;2105214;28;20016;-70
2021/04/09 03:53:40;;;;;;;12.63;9.02;;;1.30;79.90;;;;;;2105138;28;20107;-70
2021/04/09 03:54:40;;;;;;;14.20;9.43;;;1.40;80.00;;;;;;2105339;28;20024;-70
2021/04/09 03:55:41;;;;;;;12.73;8.77;;;1.40;79.90;;;;;;2105381;28;20036;-69
2021/04/09 03:56:42;;;;;;;12.80;8.65;;;1.40;79.80;;;;;;2104667;28;20020;-69
2021/04/09 03:57:43;;;;;;;14.27;9.95;;;1.40;79.80;;;;;;2105321;28;20043;-69
2021/04/09 03:58:44;;;;;;;13.02;8.93;;;1.40;79.70;;;;;;2105064;28;20024;-69
2021/04/09 03:59:45;;;;;;;14.07;9.57;;;1.40;79.60;;;;;;2096800;28;20028;-69
2021/04/09 04:00:45;;;;;;;13.60;9.60;;;1.40;79.60;;;;;;2105151;28;20032;-69
2021/04/09 04:01:46;;;;;;;14.13;9.30;;;1.40;79.60;;;;;;2105919;28;20048;-69
2021/04/09 04:02:49;;;;;;;15.77;9.60;;;1.40;79.50;;;;;;2105635;28;20053;-70
2021/04/09 04:03:50;;;;;;;14.90;9.50;;;1.40;79.50;;;;;;2107605;28;20020;-70
2021/04/09 04:04:50;;;;;;;13.73;9.27;;;1.40;79.50;;;;;;2107199;28;20052;-69
2021/04/09 04:05:51;;;;;;;12.82;9.20;;;1.40;79.60;;;;;;2106998;28;20040;-69
2021/04/09 04:06:52;;;;;;;12.63;8.80;;;1.40;79.80;;;;;;2106663;28;20024;-69
2021/04/09 04:07:52;;;;;;;13.57;9.45;;;1.40;79.60;;;;;;2106832;28;20050;-69
2021/04/09 04:08:53;;;;;;;13.43;8.98;;;1.40;79.60;;;;;;2106693;28;20032;-69
2021/04/09 04:09:54;;;;;;;12.60;8.98;;;1.40;79.80;;;;;;2105873;28;20036;-69
2021/04/09 04:10:54;;;;;;;13.25;8.68;;;1.40;80.00;;;;;;2104723;28;20459;-69
2021/04/09 04:11:55;;;;;;;11.55;8.45;;;1.30;80.00;;;;;;2104722;28;20036;-69
2021/04/09 04:12:55;;;;;;;12.30;8.85;;;1.40;80.10;;;;;;2105235;28;20032;-69
2021/04/09 04:13:56;;;;;;;11.85;8.68;;;1.40;80.30;;;;;;2105097;28;20028;-69
2021/04/09 04:14:57;;;;;;;11.85;8.55;;;1.40;80.40;;;;;;2107374;28;20016;-69
2021/04/09 04:15:57;;;;;;;13.65;8.88;;;1.40;80.40;;;;;;2106776;28;20036;-69
2021/04/09 04:16:58;;;;;;;13.52;9.10;;;1.40;80.30;;;;;;2098193;28;20119;-69
2021/04/09 04:17:58;;;;;;;11.88;8.95;;;1.40;80.50;;;;;;2106619;28;20844;-69
2021/04/09 04:18:59;;;;;;;13.32;8.82;;;1.40;80.30;;;;;;2107176;28;20065;-69
2021/04/09 04:20:00;;;;;;;14.43;9.63;;;1.40;80.20;;;;;;2107168;28;20052;-69
2021/04/09 04:21:00;;;;;;;13.40;9.68;;;1.40;80.10;;;;;;2107218;28;20123;-69
2021/04/09 04:22:01;;;;;;;12.77;9.65;;;1.40;80.10;;;;;;2106509;28;20024;-69
2021/04/09 04:23:02;;;;;;;12.60;9.20;;;1.40;79.90;;;;;;2106348;28;20519;-69
2021/04/09 04:24:03;;;;;;;15.00;9.93;;;1.40;79.80;;;;;;2106920;28;20036;-70
2021/04/09 04:25:04;;;;;;;12.25;9.20;;;1.50;80.20;;;;;;2107381;28;20020;-69
2021/04/09 04:26:05;;;;;;;14.48;9.40;;;1.50;80.10;;;;;;2106435;28;20103;-70
2021/04/09 04:27:06;;;;;;;14.75;9.60;;;1.50;80.00;;;;;;2098174;28;20376;-70
2021/04/09 04:28:07;;;;;;;12.93;9.20;;;1.50;80.00;;;;;;2106450;28;20445;-70
2021/04/09 04:29:07;;;;;;;11.88;9.18;;;1.50;80.00;;;;;;2098029;28;20085;-70
2021/04/09 04:30:09;;;;;;;15.80;9.65;;;1.50;80.10;;;;;;2106626;28;20027;-71
2021/04/09 04:31:09;;;;;;;13.27;9.60;;;1.50;80.70;;;;;;2098369;28;20106;-70
2021/04/09 04:32:10;;;;;;;13.98;9.82;;;1.60;80.10;;;;;;2098344;28;20112;-69
2021/04/09 04:33:11;;;;;;;14.35;9.32;;;1.60;79.90;;;;;;2106504;28;20096;-70
2021/04/09 04:34:11;;;;;;;14.25;10.00;;;1.60;79.90;;;;;;2106865;28;20524;-70
2021/04/09 04:35:13;;;;;;;13.93;9.60;;;1.60;79.90;;;;;;2107612;28;20039;-70
2021/04/09 04:36:14;;;;;;;14.55;10.10;;;1.60;80.00;;;;;;2107221;28;20028;-70
2021/04/09 04:37:15;;;;;;;14.27;10.15;;;1.60;79.90;;;;;;2107590;28;20024;-69
2021/04/09 04:38:20;;;;;;;14.43;9.95;;;1.60;79.80;;;;;;2107883;28;20055;-70
2021/04/09 04:39:21;;;;;;;14.10;9.45;;;1.60;79.70;;;;;;2108549;28;20103;-70
2021/04/09 04:40:21;;;;;;;16.90;10.10;;;1.60;79.80;;;;;;2108001;28;20043;-70
2021/04/09 04:41:22;;;;;;;14.68;10.05;;;1.60;79.70;;;;;;2107478;28;20078;-71
2021/04/09 04:42:23;;;;;;;15.27;10.15;;;1.70;79.50;;;;;;2107190;28;20032;-69
2021/04/09 04:43:24;;;;;;;17.60;11.00;;;1.70;79.50;;;;;;2107049;28;20455;-70
2021/04/09 04:44:25;;;;;;;20.08;11.43;;;1.70;79.60;;;;;;2098281;28;20028;-70
2021/04/09 04:45:26;;;;;;;21.38;11.73;;;1.70;79.60;;;;;;2089766;28;20473;-70
2021/04/09 04:46:26;;;;;;;20.48;11.48;;;1.70;79.70;;;;;;2106527;28;20024;-71
2021/04/09 04:47:27;;;;;;;17.92;10.93;;;1.80;79.70;;;;;;2106334;28;20061;-69
2021/04/09 04:48:28;;;;;;;18.33;10.90;;;1.80;79.70;;;;;;2097803;28;20091;-70
2021/04/09 04:49:29;;;;;;;16.45;10.50;;;1.80;79.80;;;;;;2097715;28;20033;-70
2021/04/09 04:50:29;;;;;;;16.85;11.00;;;1.80;79.90;;;;;;2097807;28;20025;-69
2021/04/09 04:51:30;;;;;;;19.80;10.70;;;1.80;80.00;;;;;;2098127;28;20031;-70
2021/04/09 04:52:31;;;;;;;16.10;10.48;;;1.80;80.10;;;;;;2107216;28;20371;-70
2021/04/09 04:53:32;;;;;;;15.82;10.25;;;1.70;80.10;;;;;;2107710;28;20144;-70
2021/04/09 04:54:32;;;;;;;15.57;10.38;;;1.80;80.20;;;;;;2107755;28;20036;-70
2021/04/09 04:55:33;;;;;;;14.80;10.45;;;1.80;80.20;;;;;;2106646;28;20028;-70
2021/04/09 04:56:34;;;;;;;14.75;9.65;;;1.80;80.30;;;;;;2107076;28;20543;-70
2021/04/09 04:57:35;;;;;;;14.80;10.07;;;1.80;80.40;;;;;;2106830;28;20043;-69
2021/04/09 04:58:35;;;;;;;16.08;10.50;;;1.80;80.60;;;;;;2106470;28;20380;-69
2021/04/09 04:59:36;;;;;;;15.88;10.18;;;1.80;80.60;;;;;;2106160;28;20486;-70
2021/04/09 05:00:36;;;;;;;15.05;9.88;;;1.80;80.50;;;;;;2106709;28;20492;-69
2021/04/09 05:01:37;;;;;;;16.92;10.00;;;1.80;80.50;;;;;;2106255;28;20028;-69
2021/04/09 05:02:38;;;;;;;15.45;10.10;;;1.80;80.50;;;;;;2106130;28;20474;-69
2021/04/09 05:03:39;;;;;;;15.82;9.77;;;1.90;80.50;;;;;;2097529;28;20035;-71
2021/04/09 05:04:40;;;;;;;15.30;10.13;;;1.90;80.50;;;;;;2097811;28;20025;-71
2021/04/09 05:05:40;;;;;;;13.77;10.05;;;1.90;80.40;;;;;;2106636;28;20020;-71
2021/04/09 05:06:41;;;;;;;15.90;10.10;;;2.00;80.30;;;;;;2106765;28;20039;-69
2021/04/09 05:07:42;;;;;;;13.90;9.65;;;2.10;80.10;;;;;;2106561;28;20043;-70
2021/04/09 05:08:43;;;;;;;15.60;10.23;;;2.20;80.60;;;;;;2106576;28;20020;-70
2021/04/09 05:09:44;;;;;;;13.80;9.60;;;2.40;79.50;;;;;;2105919;28;20028;-69
2021/04/09 05:10:45;;;;;;;15.65;10.30;;;2.60;79.20;;;;;;2105946;28;20499;-70
2021/04/09 05:11:45;;;;;;;14.85;10.10;;;2.80;78.50;;;;;;2105816;28;20032;-70
2021/04/09 05:12:46;;;;;;;13.38;9.43;;;3.00;77.60;;;;;;2106017;28;20046;-69
2021/04/09 05:13:47;;;;;;;13.25;9.20;;;3.10;76.70;;;;;;2106502;28;20043;-70
2021/04/09 05:14:47;;;;;;;13.45;9.75;;;3.40;75.80;;;;;;2105996;28;20040;-69
2021/04/09 05:15:48;;;;;;;13.40;9.20;;;3.60;74.90;;;;;;2097665;28;20031;-69
2021/04/09 05:16:49;;;;;;;14.00;9.43;;;3.80;74.20;;;;;;2097693;28;20032;-69
2021/04/09 05:17:49;;;;;;;14.57;9.38;;;4.00;73.40;;;;;;2089530;28;20409;-70
2021/04/09 05:18:50;;;;;;;14.32;9.68;;;4.20;72.20;;;;;;2090278;28;20112;-70
2021/04/09 05:19:51;;;;;;;13.05;9.38;;;4.40;71.20;;;;;;2106181;28;20102;-70
2021/04/09 05:20:51;;;;;;;15.15;9.45;;;4.60;70.40;;;;;;2106750;28;20509;-70
2021/04/09 05:21:52;;;;;;;14.32;9.88;;;4.80;69.60;;;;;;2105830;28;20093;-70
2021/04/09 05:22:52;;;;;;;13.52;9.50;;;4.90;68.50;;;;;;2105881;28;20032;-71
2021/04/09 05:23:53;;;;;;;13.52;9.88;;;5.10;67.80;;;;;;2105486;28;20593;-69
2021/04/09 05:24:54;;;;;;;13.00;9.45;;;5.30;66.90;;;;;;2097349;28;20424;-70
2021/04/09 05:25:55;;;;;;;14.25;9.15;;;5.50;66.30;;;;;;2105026;28;20472;-69